sensor_id;sensor_type;location;lat;lon;timestamp;pressure;altitude;pressure_sealevel;temperature;humidity
22653;BME280;11493;43.344;26.226;2023-02-11T00:01:53;101250.56;;;-8.18;91.47
22653;BME280;11493;43.344;26.226;2023-02-11T00:04:20;101257.72;;;-8.18;91.58
22653;BME280;11493;43.344;26.226;2023-02-11T00:06:47;101241.16;;;-8.22;91.61
22653;BME280;11493;43.344;26.226;2023-02-11T00:09:14;101244.75;;;-8.13;91.41
22653;BME280;11493;43.344;26.226;2023-02-11T00:11:41;101252.91;;;-8.15;90.87
22653;BME280;11493;43.344;26.226;2023-02-11T00:14:09;101240.59;;;-8.25;91.01
22653;BME280;11493;43.344;26.226;2023-02-11T00:16:37;101248.03;;;-8.19;91.56
22653;BME280;11493;43.344;26.226;2023-02-11T00:19:04;101246.72;;;-8.15;91.55
22653;BME280;11493;43.344;26.226;2023-02-11T00:21:33;101240.16;;;-8.21;91.56
22653;BME280;11493;43.344;26.226;2023-02-11T00:24:00;101246.50;;;-8.22;91.57
22653;BME280;11493;43.344;26.226;2023-02-11T00:26:30;101241.03;;;-8.30;91.58
22653;BME280;11493;43.344;26.226;2023-02-11T00:28:59;101242.72;;;-8.29;91.42
22653;BME280;11493;43.344;26.226;2023-02-11T00:31:28;101236.25;;;-8.26;91.60
22653;BME280;11493;43.344;26.226;2023-02-11T00:33:55;101221.28;;;-8.37;91.73
22653;BME280;11493;43.344;26.226;2023-02-11T00:36:24;101241.88;;;-8.30;91.35
22653;BME280;11493;43.344;26.226;2023-02-11T00:38:53;101221.28;;;-8.37;90.94
22653;BME280;11493;43.344;26.226;2023-02-11T00:41:20;101234.34;;;-8.34;91.05
22653;BME280;11493;43.344;26.226;2023-02-11T00:43:48;101223.41;;;-8.41;90.66
22653;BME280;11493;43.344;26.226;2023-02-11T00:46:17;101223.03;;;-8.28;90.90
22653;BME280;11493;43.344;26.226;2023-02-11T00:48:44;101219.31;;;-8.35;89.90
22653;BME280;11493;43.344;26.226;2023-02-11T00:51:12;101222.22;;;-8.29;89.52
22653;BME280;11493;43.344;26.226;2023-02-11T00:53:39;101204.31;;;-8.46;89.55
22653;BME280;11493;43.344;26.226;2023-02-11T00:56:07;101217.94;;;-8.49;90.23
22653;BME280;11493;43.344;26.226;2023-02-11T00:58:35;101221.47;;;-8.48;90.72
22653;BME280;11493;43.344;26.226;2023-02-11T01:01:03;101223.84;;;-8.45;90.79
22653;BME280;11493;43.344;26.226;2023-02-11T01:03:30;101211.38;;;-8.54;91.40
22653;BME280;11493;43.344;26.226;2023-02-11T01:05:57;101212.75;;;-8.50;91.71
22653;BME280;11493;43.344;26.226;2023-02-11T01:08:24;101208.00;;;-8.56;91.84
22653;BME280;11493;43.344;26.226;2023-02-11T01:10:59;101217.53;;;-8.54;91.75
22653;BME280;11493;43.344;26.226;2023-02-11T01:13:28;101220.75;;;-8.50;91.80
22653;BME280;11493;43.344;26.226;2023-02-11T01:15:56;101199.88;;;-8.65;91.95
22653;BME280;11493;43.344;26.226;2023-02-11T01:18:24;101217.41;;;-8.52;91.58
22653;BME280;11493;43.344;26.226;2023-02-11T01:20:52;101219.22;;;-8.53;91.61
22653;BME280;11493;43.344;26.226;2023-02-11T01:23:22;101210.78;;;-8.48;91.76
22653;BME280;11493;43.344;26.226;2023-02-11T01:25:49;101201.25;;;-8.60;91.74
22653;BME280;11493;43.344;26.226;2023-02-11T01:28:23;101207.72;;;-8.53;91.71
22653;BME280;11493;43.344;26.226;2023-02-11T01:30:51;101219.38;;;-8.54;91.54
22653;BME280;11493;43.344;26.226;2023-02-11T01:33:19;101231.72;;;-8.53;91.54
22653;BME280;11493;43.344;26.226;2023-02-11T01:35:46;101210.94;;;-8.50;91.20
22653;BME280;11493;43.344;26.226;2023-02-11T01:38:20;101187.38;;;-8.64;91.36
22653;BME280;11493;43.344;26.226;2023-02-11T01:40:49;101196.47;;;-8.57;91.70
22653;BME280;11493;43.344;26.226;2023-02-11T01:43:18;101204.06;;;-8.52;91.48
22653;BME280;11493;43.344;26.226;2023-02-11T01:48:19;101190.03;;;-8.64;90.97
22653;BME280;11493;43.344;26.226;2023-02-11T01:50:50;101201.84;;;-8.67;90.39
22653;BME280;11493;43.344;26.226;2023-02-11T01:53:20;101201.00;;;-8.67;90.35
22653;BME280;11493;43.344;26.226;2023-02-11T01:56:07;101219.53;;;-8.66;90.16
22653;BME280;11493;43.344;26.226;2023-02-11T01:58:54;101204.13;;;-8.81;90.20
22653;BME280;11493;43.344;26.226;2023-02-11T02:01:25;101212.41;;;-8.75;90.29
22653;BME280;11493;43.344;26.226;2023-02-11T02:03:55;101212.81;;;-8.70;90.25
22653;BME280;11493;43.344;26.226;2023-02-11T02:06:34;101214.22;;;-8.75;90.55
22653;BME280;11493;43.344;26.226;2023-02-11T02:09:07;101219.84;;;-8.78;90.75
22653;BME280;11493;43.344;26.226;2023-02-11T02:11:35;101216.75;;;-8.83;90.98
22653;BME280;11493;43.344;26.226;2023-02-11T02:14:02;101213.41;;;-8.85;91.26
22653;BME280;11493;43.344;26.226;2023-02-11T02:16:33;101201.47;;;-8.91;91.52
22653;BME280;11493;43.344;26.226;2023-02-11T02:32:49;101226.59;;;-8.84;90.89
22653;BME280;11493;43.344;26.226;2023-02-11T02:38:30;101218.31;;;-8.81;90.46
22653;BME280;11493;43.344;26.226;2023-02-11T02:41:11;101223.94;;;-8.84;90.79
22653;BME280;11493;43.344;26.226;2023-02-11T02:43:41;101186.66;;;-9.03;90.44
22653;BME280;11493;43.344;26.226;2023-02-11T02:48:48;101206.97;;;-8.92;90.81
22653;BME280;11493;43.344;26.226;2023-02-11T02:56:44;101216.34;;;-8.79;90.61
22653;BME280;11493;43.344;26.226;2023-02-11T03:05:20;101215.94;;;-8.84;90.20
22653;BME280;11493;43.344;26.226;2023-02-11T03:08:17;101208.91;;;-8.85;90.43
22653;BME280;11493;43.344;26.226;2023-02-11T03:10:50;101196.47;;;-8.94;90.63
22653;BME280;11493;43.344;26.226;2023-02-11T03:13:23;101216.63;;;-8.82;90.77
22653;BME280;11493;43.344;26.226;2023-02-11T03:15:54;101212.28;;;-8.83;90.60
22653;BME280;11493;43.344;26.226;2023-02-11T03:18:26;101225.31;;;-8.80;90.07
22653;BME280;11493;43.344;26.226;2023-02-11T03:20:55;101173.03;;;-9.00;89.97
22653;BME280;11493;43.344;26.226;2023-02-11T03:23:39;101213.25;;;-8.84;89.73
22653;BME280;11493;43.344;26.226;2023-02-11T03:26:24;101210.72;;;-8.85;90.05
22653;BME280;11493;43.344;26.226;2023-02-11T03:34:39;101221.53;;;-8.87;90.59
22653;BME280;11493;43.344;26.226;2023-02-11T03:37:13;101182.56;;;-8.98;90.43
22653;BME280;11493;43.344;26.226;2023-02-11T03:40:20;101202.19;;;-8.89;90.64
22653;BME280;11493;43.344;26.226;2023-02-11T03:42:45;101192.09;;;-8.95;90.73
22653;BME280;11493;43.344;26.226;2023-02-11T03:45:17;101191.50;;;-8.89;90.75
22653;BME280;11493;43.344;26.226;2023-02-11T03:47:48;101198.22;;;-8.85;90.99
22653;BME280;11493;43.344;26.226;2023-02-11T03:50:19;101196.84;;;-8.89;90.46
22653;BME280;11493;43.344;26.226;2023-02-11T03:52:47;101196.75;;;-8.97;90.04
22653;BME280;11493;43.344;26.226;2023-02-11T03:55:18;101204.31;;;-9.02;89.93
22653;BME280;11493;43.344;26.226;2023-02-11T03:57:47;101186.22;;;-9.08;90.05
22653;BME280;11493;43.344;26.226;2023-02-11T04:00:14;101190.44;;;-9.06;89.98
22653;BME280;11493;43.344;26.226;2023-02-11T04:02:41;101188.19;;;-9.10;89.70
22653;BME280;11493;43.344;26.226;2023-02-11T04:05:11;101181.47;;;-9.14;89.71
22653;BME280;11493;43.344;26.226;2023-02-11T04:07:39;101183.84;;;-9.11;89.88
22653;BME280;11493;43.344;26.226;2023-02-11T04:10:07;101186.50;;;-9.11;89.58
22653;BME280;11493;43.344;26.226;2023-02-11T04:12:34;101177.41;;;-9.18;89.41
22653;BME280;11493;43.344;26.226;2023-02-11T04:15:01;101185.69;;;-9.21;89.35
22653;BME280;11493;43.344;26.226;2023-02-11T04:17:28;101175.72;;;-9.29;89.97
22653;BME280;11493;43.344;26.226;2023-02-11T04:19:55;101189.59;;;-9.16;89.94
22653;BME280;11493;43.344;26.226;2023-02-11T04:22:23;101190.31;;;-9.14;89.92
22653;BME280;11493;43.344;26.226;2023-02-11T04:24:49;101181.75;;;-9.17;90.65
22653;BME280;11493;43.344;26.226;2023-02-11T04:27:17;101181.75;;;-9.17;90.49
22653;BME280;11493;43.344;26.226;2023-02-11T04:29:44;101183.28;;;-9.24;90.69
22653;BME280;11493;43.344;26.226;2023-02-11T04:32:11;101185.81;;;-9.23;90.48
22653;BME280;11493;43.344;26.226;2023-02-11T04:34:38;101178.66;;;-9.22;90.42
22653;BME280;11493;43.344;26.226;2023-02-11T04:37:06;101180.06;;;-9.18;90.44
22653;BME280;11493;43.344;26.226;2023-02-11T04:39:34;101172.22;;;-9.20;90.14
22653;BME280;11493;43.344;26.226;2023-02-11T04:42:01;101161.56;;;-9.30;90.39
22653;BME280;11493;43.344;26.226;2023-02-11T04:44:28;101150.34;;;-9.43;90.35
22653;BME280;11493;43.344;26.226;2023-02-11T04:46:55;101180.34;;;-9.21;90.12
22653;BME280;11493;43.344;26.226;2023-02-11T04:49:22;101171.38;;;-9.20;90.45
22653;BME280;11493;43.344;26.226;2023-02-11T04:51:49;101176.69;;;-9.11;89.20
22653;BME280;11493;43.344;26.226;2023-02-11T04:54:17;101175.56;;;-9.18;88.98
22653;BME280;11493;43.344;26.226;2023-02-11T04:56:44;101143.03;;;-9.41;88.92
22653;BME280;11493;43.344;26.226;2023-02-11T04:59:10;101174.75;;;-9.28;88.80
22653;BME280;11493;43.344;26.226;2023-02-11T05:01:39;101160.44;;;-9.37;88.42
22653;BME280;11493;43.344;26.226;2023-02-11T05:04:06;101170.66;;;-9.32;88.60
22653;BME280;11493;43.344;26.226;2023-02-11T05:06:33;101165.06;;;-9.39;88.53
22653;BME280;11493;43.344;26.226;2023-02-11T05:09:00;101161.84;;;-9.52;88.71
22653;BME280;11493;43.344;26.226;2023-02-11T05:11:28;101166.88;;;-9.39;88.73
22653;BME280;11493;43.344;26.226;2023-02-11T05:13:55;101143.03;;;-9.41;88.95
22653;BME280;11493;43.344;26.226;2023-02-11T05:16:22;101155.53;;;-9.32;89.05
22653;BME280;11493;43.344;26.226;2023-02-11T05:18:49;101149.22;;;-9.40;89.41
22653;BME280;11493;43.344;26.226;2023-02-11T05:21:18;101138.81;;;-9.34;89.64
22653;BME280;11493;43.344;26.226;2023-02-11T05:23:45;101145.41;;;-9.28;89.65
22653;BME280;11493;43.344;26.226;2023-02-11T05:26:12;101150.59;;;-9.26;90.21
22653;BME280;11493;43.344;26.226;2023-02-11T05:28:40;101152.28;;;-9.25;90.64
22653;BME280;11493;43.344;26.226;2023-02-11T05:31:09;101161.97;;;-9.24;90.88
22653;BME280;11493;43.344;26.226;2023-02-11T05:33:36;101154.53;;;-9.21;90.82
22653;BME280;11493;43.344;26.226;2023-02-11T05:36:06;101155.78;;;-9.15;90.21
22653;BME280;11493;43.344;26.226;2023-02-11T05:38:35;101157.06;;;-9.19;90.72
22653;BME280;11493;43.344;26.226;2023-02-11T05:41:03;101156.78;;;-9.16;91.04
22653;BME280;11493;43.344;26.226;2023-02-11T05:43:30;101151.44;;;-9.16;90.80
22653;BME280;11493;43.344;26.226;2023-02-11T05:45:57;101166.28;;;-9.04;90.62
22653;BME280;11493;43.344;26.226;2023-02-11T05:48:24;101163.06;;;-8.98;90.65
22653;BME280;11493;43.344;26.226;2023-02-11T05:50:51;101151.41;;;-8.97;90.65
22653;BME280;11493;43.344;26.226;2023-02-11T05:53:18;101152.59;;;-8.82;90.56
22653;BME280;11493;43.344;26.226;2023-02-11T05:55:45;101162.25;;;-8.71;90.03
22653;BME280;11493;43.344;26.226;2023-02-11T05:58:12;101150.75;;;-8.72;90.01
22653;BME280;11493;43.344;26.226;2023-02-11T06:00:39;101168.53;;;-8.63;90.16
22653;BME280;11493;43.344;26.226;2023-02-11T06:03:06;101165.00;;;-8.53;89.66
22653;BME280;11493;43.344;26.226;2023-02-11T06:05:34;101158.69;;;-8.52;89.45
22653;BME280;11493;43.344;26.226;2023-02-11T06:08:01;101165.25;;;-8.47;89.20
22653;BME280;11493;43.344;26.226;2023-02-11T06:10:29;101177.88;;;-8.39;88.65
22653;BME280;11493;43.344;26.226;2023-02-11T06:12:56;101167.88;;;-8.37;88.51
22653;BME280;11493;43.344;26.226;2023-02-11T06:15:22;101169.94;;;-8.31;88.27
22653;BME280;11493;43.344;26.226;2023-02-11T06:17:50;101176.44;;;-8.16;88.52
22653;BME280;11493;43.344;26.226;2023-02-11T06:20:18;101185.50;;;-7.99;88.70
22653;BME280;11493;43.344;26.226;2023-02-11T06:22:45;101177.72;;;-7.92;88.69
22653;BME280;11493;43.344;26.226;2023-02-11T06:25:12;101174.84;;;-7.81;88.53
22653;BME280;11493;43.344;26.226;2023-02-11T06:27:39;101176.00;;;-7.66;88.23
22653;BME280;11493;43.344;26.226;2023-02-11T06:30:07;101182.34;;;-7.49;88.31
22653;BME280;11493;43.344;26.226;2023-02-11T06:32:34;101180.03;;;-7.26;88.20
22653;BME280;11493;43.344;26.226;2023-02-11T06:35:12;101191.72;;;-7.10;87.49
22653;BME280;11493;43.344;26.226;2023-02-11T06:37:40;101198.78;;;-6.83;87.54
22653;BME280;11493;43.344;26.226;2023-02-11T06:40:08;101197.38;;;-6.69;86.77
22653;BME280;11493;43.344;26.226;2023-02-11T06:42:35;101181.38;;;-6.53;86.69
22653;BME280;11493;43.344;26.226;2023-02-11T06:45:04;101193.22;;;-6.30;86.31
22653;BME280;11493;43.344;26.226;2023-02-11T06:47:39;101177.16;;;-6.30;85.92
22653;BME280;11493;43.344;26.226;2023-02-11T06:50:10;101193.19;;;-6.04;85.61
22653;BME280;11493;43.344;26.226;2023-02-11T06:52:38;101188.00;;;-5.97;85.52
22653;BME280;11493;43.344;26.226;2023-02-11T06:55:05;101207.63;;;-5.80;86.04
22653;BME280;11493;43.344;26.226;2023-02-11T06:57:32;101195.28;;;-5.57;86.11
22653;BME280;11493;43.344;26.226;2023-02-11T06:59:59;101190.47;;;-5.37;85.79
22653;BME280;11493;43.344;26.226;2023-02-11T07:02:26;101183.91;;;-5.18;85.52
22653;BME280;11493;43.344;26.226;2023-02-11T07:04:53;101177.38;;;-5.00;85.38
22653;BME280;11493;43.344;26.226;2023-02-11T07:07:20;101172.50;;;-4.80;85.05
22653;BME280;11493;43.344;26.226;2023-02-11T07:09:47;101192.75;;;-4.53;84.93
22653;BME280;11493;43.344;26.226;2023-02-11T07:12:14;101173.06;;;-4.37;84.45
22653;BME280;11493;43.344;26.226;2023-02-11T07:14:41;101179.53;;;-4.15;84.35
22653;BME280;11493;43.344;26.226;2023-02-11T07:17:08;101185.66;;;-3.90;84.05
22653;BME280;11493;43.344;26.226;2023-02-11T07:19:35;101173.81;;;-3.73;83.79
22653;BME280;11493;43.344;26.226;2023-02-11T07:22:02;101164.28;;;-3.61;83.31
22653;BME280;11493;43.344;26.226;2023-02-11T07:24:29;101176.75;;;-3.37;83.13
22653;BME280;11493;43.344;26.226;2023-02-11T07:26:56;101176.28;;;-3.18;82.01
22653;BME280;11493;43.344;26.226;2023-02-11T07:29:23;101163.09;;;-3.13;81.72
22653;BME280;11493;43.344;26.226;2023-02-11T07:31:50;101176.50;;;-3.05;81.23
22653;BME280;11493;43.344;26.226;2023-02-11T07:34:17;101168.34;;;-2.97;81.35
22653;BME280;11493;43.344;26.226;2023-02-11T07:36:44;101176.00;;;-2.71;80.97
22653;BME280;11493;43.344;26.226;2023-02-11T07:39:11;101162.38;;;-2.54;80.67
22653;BME280;11493;43.344;26.226;2023-02-11T07:41:39;101159.31;;;-2.37;80.51
22653;BME280;11493;43.344;26.226;2023-02-11T07:44:06;101154.13;;;-2.23;79.69
22653;BME280;11493;43.344;26.226;2023-02-11T07:46:34;101159.00;;;-2.12;79.67
22653;BME280;11493;43.344;26.226;2023-02-11T07:49:02;101153.88;;;-1.92;79.10
22653;BME280;11493;43.344;26.226;2023-02-11T07:51:30;101150.13;;;-1.77;78.23
22653;BME280;11493;43.344;26.226;2023-02-11T07:53:58;101150.28;;;-1.63;77.87
22653;BME280;11493;43.344;26.226;2023-02-11T07:56:27;101155.94;;;-1.37;77.42
22653;BME280;11493;43.344;26.226;2023-02-11T07:58:54;101159.41;;;-1.22;77.05
22653;BME280;11493;43.344;26.226;2023-02-11T08:01:24;101156.72;;;-1.01;76.92
22653;BME280;11493;43.344;26.226;2023-02-11T08:03:56;101147.88;;;-0.88;76.66
22653;BME280;11493;43.344;26.226;2023-02-11T08:06:25;101157.16;;;-0.69;76.50
22653;BME280;11493;43.344;26.226;2023-02-11T08:08:53;101147.06;;;-0.54;76.02
22653;BME280;11493;43.344;26.226;2023-02-11T08:11:22;101151.34;;;-0.38;75.81
22653;BME280;11493;43.344;26.226;2023-02-11T08:13:50;101150.31;;;-0.37;75.13
22653;BME280;11493;43.344;26.226;2023-02-11T08:16:26;101149.75;;;-0.26;75.17
22653;BME280;11493;43.344;26.226;2023-02-11T08:18:59;101144.75;;;-0.29;75.17
22653;BME280;11493;43.344;26.226;2023-02-11T08:21:27;101148.16;;;-0.14;75.04
22653;BME280;11493;43.344;26.226;2023-02-11T08:23:55;101142.59;;;0.01;74.95
22653;BME280;11493;43.344;26.226;2023-02-11T08:26:26;101136.59;;;0.12;74.07
22653;BME280;11493;43.344;26.226;2023-02-11T08:28:54;101136.00;;;0.17;73.35
22653;BME280;11493;43.344;26.226;2023-02-11T08:31:27;101125.56;;;0.14;72.89
22653;BME280;11493;43.344;26.226;2023-02-11T08:33:56;101119.91;;;-0.05;72.20
22653;BME280;11493;43.344;26.226;2023-02-11T08:36:28;101132.41;;;0.10;72.04
22653;BME280;11493;43.344;26.226;2023-02-11T08:38:57;101134.75;;;0.19;72.48
22653;BME280;11493;43.344;26.226;2023-02-11T08:41:45;101131.88;;;0.34;71.61
22653;BME280;11493;43.344;26.226;2023-02-11T08:44:12;101136.72;;;0.45;71.02
22653;BME280;11493;43.344;26.226;2023-02-11T08:46:39;101130.06;;;0.48;70.65
22653;BME280;11493;43.344;26.226;2023-02-11T08:49:06;101122.97;;;0.47;69.95
22653;BME280;11493;43.344;26.226;2023-02-11T08:51:33;101128.38;;;0.40;69.68
22653;BME280;11493;43.344;26.226;2023-02-11T08:54:00;101139.63;;;0.50;69.63
22653;BME280;11493;43.344;26.226;2023-02-11T08:56:28;101136.13;;;0.63;69.38
22653;BME280;11493;43.344;26.226;2023-02-11T08:58:57;101133.63;;;0.61;69.04
22653;BME280;11493;43.344;26.226;2023-02-11T09:01:27;101136.75;;;0.58;69.17
22653;BME280;11493;43.344;26.226;2023-02-11T09:03:57;101130.28;;;0.59;68.77
22653;BME280;11493;43.344;26.226;2023-02-11T09:06:25;101113.19;;;0.59;68.42
22653;BME280;11493;43.344;26.226;2023-02-11T09:08:54;101108.81;;;0.58;68.33
22653;BME280;11493;43.344;26.226;2023-02-11T09:11:29;101111.34;;;0.66;67.99
22653;BME280;11493;43.344;26.226;2023-02-11T09:13:57;101114.25;;;0.78;67.61
22653;BME280;11493;43.344;26.226;2023-02-11T09:16:27;101119.66;;;0.84;67.45
22653;BME280;11493;43.344;26.226;2023-02-11T09:18:58;101109.44;;;0.80;68.25
22653;BME280;11493;43.344;26.226;2023-02-11T09:21:26;101134.28;;;0.96;67.80
22653;BME280;11493;43.344;26.226;2023-02-11T09:23:54;101123.44;;;1.03;67.36
22653;BME280;11493;43.344;26.226;2023-02-11T09:26:27;101110.91;;;0.89;67.25
22653;BME280;11493;43.344;26.226;2023-02-11T09:28:55;101110.72;;;0.97;67.89
22653;BME280;11493;43.344;26.226;2023-02-11T09:31:24;101092.16;;;1.07;66.37
22653;BME280;11493;43.344;26.226;2023-02-11T09:33:54;101098.19;;;1.09;66.80
22653;BME280;11493;43.344;26.226;2023-02-11T09:36:27;101090.88;;;1.23;67.02
22653;BME280;11493;43.344;26.226;2023-02-11T09:38:57;101086.28;;;1.37;66.53
22653;BME280;11493;43.344;26.226;2023-02-11T09:43:56;101090.59;;;1.51;66.38
22653;BME280;11493;43.344;26.226;2023-02-11T09:46:25;101070.41;;;1.47;66.22
22653;BME280;11493;43.344;26.226;2023-02-11T09:48:56;101072.38;;;1.78;65.77
22653;BME280;11493;43.344;26.226;2023-02-11T09:54:18;101058.22;;;1.69;65.24
22653;BME280;11493;43.344;26.226;2023-02-11T09:56:47;101053.94;;;1.35;66.60
22653;BME280;11493;43.344;26.226;2023-02-11T09:59:15;101050.38;;;1.48;66.11
22653;BME280;11493;43.344;26.226;2023-02-11T10:01:58;101063.81;;;1.74;66.09
22653;BME280;11493;43.344;26.226;2023-02-11T10:04:43;101038.13;;;1.83;65.61
22653;BME280;11493;43.344;26.226;2023-02-11T10:15:41;101033.28;;;2.23;64.14
22653;BME280;11493;43.344;26.226;2023-02-11T10:21:23;101026.53;;;2.33;64.66
22653;BME280;11493;43.344;26.226;2023-02-11T10:23:59;101007.84;;;2.18;63.71
22653;BME280;11493;43.344;26.226;2023-02-11T10:26:30;101010.03;;;2.03;62.97
22653;BME280;11493;43.344;26.226;2023-02-11T10:29:00;100988.25;;;1.78;64.56
22653;BME280;11493;43.344;26.226;2023-02-11T10:31:37;100988.09;;;1.66;63.46
22653;BME280;11493;43.344;26.226;2023-02-11T10:34:11;100993.44;;;1.79;63.90
22653;BME280;11493;43.344;26.226;2023-02-11T10:36:41;100988.38;;;1.89;64.85
22653;BME280;11493;43.344;26.226;2023-02-11T10:39:14;100988.72;;;2.06;63.57
22653;BME280;11493;43.344;26.226;2023-02-11T10:42:04;100989.25;;;1.83;63.12
22653;BME280;11493;43.344;26.226;2023-02-11T10:44:33;100982.13;;;1.89;63.58
22653;BME280;11493;43.344;26.226;2023-02-11T10:47:08;100951.59;;;1.62;64.53
22653;BME280;11493;43.344;26.226;2023-02-11T10:49:40;100962.91;;;1.90;64.32
22653;BME280;11493;43.344;26.226;2023-02-11T10:52:26;100960.34;;;2.02;64.69
22653;BME280;11493;43.344;26.226;2023-02-11T10:57:41;100963.56;;;2.17;63.42
22653;BME280;11493;43.344;26.226;2023-02-11T11:00:42;100969.28;;;2.34;63.64
22653;BME280;11493;43.344;26.226;2023-02-11T11:03:23;100955.69;;;2.34;63.51
22653;BME280;11493;43.344;26.226;2023-02-11T11:06:01;100857.66;;;1.92;63.14
22653;BME280;11493;43.344;26.226;2023-02-11T11:08:59;100949.38;;;2.40;62.80
22653;BME280;11493;43.344;26.226;2023-02-11T11:11:30;100951.53;;;2.56;62.70
22653;BME280;11493;43.344;26.226;2023-02-11T11:13:59;100934.78;;;2.59;62.00
22653;BME280;11493;43.344;26.226;2023-02-11T11:16:35;100912.69;;;2.74;61.66
22653;BME280;11493;43.344;26.226;2023-02-11T11:21:53;100921.41;;;2.83;60.05
22653;BME280;11493;43.344;26.226;2023-02-11T11:24:31;100923.22;;;2.89;59.93
22653;BME280;11493;43.344;26.226;2023-02-11T11:27:02;100915.81;;;2.78;59.53
22653;BME280;11493;43.344;26.226;2023-02-11T11:29:35;100876.09;;;2.77;59.82
22653;BME280;11493;43.344;26.226;2023-02-11T11:32:25;100920.78;;;2.99;58.55
22653;BME280;11493;43.344;26.226;2023-02-11T11:34:55;100914.44;;;2.87;57.78
22653;BME280;11493;43.344;26.226;2023-02-11T11:37:29;100910.88;;;3.05;57.78
22653;BME280;11493;43.344;26.226;2023-02-11T11:42:27;100913.63;;;2.86;57.44
22653;BME280;11493;43.344;26.226;2023-02-11T11:48:24;100897.97;;;3.18;57.00
22653;BME280;11493;43.344;26.226;2023-02-11T11:50:56;100896.44;;;3.22;56.38
22653;BME280;11493;43.344;26.226;2023-02-11T11:56:01;100886.47;;;3.35;56.08
22653;BME280;11493;43.344;26.226;2023-02-11T11:58:30;100879.66;;;3.25;57.38
22653;BME280;11493;43.344;26.226;2023-02-11T12:04:18;100877.50;;;3.16;57.40
22653;BME280;11493;43.344;26.226;2023-02-11T12:07:05;100871.09;;;3.40;57.78
22653;BME280;11493;43.344;26.226;2023-02-11T12:17:38;100848.09;;;3.24;56.43
22653;BME280;11493;43.344;26.226;2023-02-11T12:23:02;100834.75;;;3.35;56.80
22653;BME280;11493;43.344;26.226;2023-02-11T12:25:55;100838.59;;;3.45;56.41
22653;BME280;11493;43.344;26.226;2023-02-11T12:44:44;100825.03;;;3.27;57.57
22653;BME280;11493;43.344;26.226;2023-02-11T12:55:44;100796.13;;;3.14;58.57
22653;BME280;11493;43.344;26.226;2023-02-11T12:58:18;100804.59;;;3.36;58.65
22653;BME280;11493;43.344;26.226;2023-02-11T13:01:00;100803.41;;;3.32;59.34
22653;BME280;11493;43.344;26.226;2023-02-11T13:03:36;100729.50;;;3.05;58.87
22653;BME280;11493;43.344;26.226;2023-02-11T13:06:17;100798.09;;;3.37;58.44
22653;BME280;11493;43.344;26.226;2023-02-11T13:09:17;100788.28;;;3.36;58.09
22653;BME280;11493;43.344;26.226;2023-02-11T13:11:54;100778.50;;;3.47;59.25
22653;BME280;11493;43.344;26.226;2023-02-11T13:14:28;100788.94;;;3.61;59.43
22653;BME280;11493;43.344;26.226;2023-02-11T13:17:04;100782.66;;;3.73;58.63
22653;BME280;11493;43.344;26.226;2023-02-11T13:19:50;100726.41;;;3.32;58.36
22653;BME280;11493;43.344;26.226;2023-02-11T13:22:25;100769.78;;;3.56;58.79
22653;BME280;11493;43.344;26.226;2023-02-11T13:25:01;100774.41;;;3.68;59.09
22653;BME280;11493;43.344;26.226;2023-02-11T13:27:57;100765.84;;;3.52;58.83
22653;BME280;11493;43.344;26.226;2023-02-11T13:30:26;100772.50;;;3.56;58.69
22653;BME280;11493;43.344;26.226;2023-02-11T13:37:57;100757.22;;;3.55;59.83
22653;BME280;11493;43.344;26.226;2023-02-11T13:40:31;100744.81;;;3.59;59.37
22653;BME280;11493;43.344;26.226;2023-02-11T13:43:02;100750.47;;;3.58;59.26
22653;BME280;11493;43.344;26.226;2023-02-11T13:45:41;100746.94;;;3.57;58.97
22653;BME280;11493;43.344;26.226;2023-02-11T13:48:29;100732.84;;;3.49;58.81
22653;BME280;11493;43.344;26.226;2023-02-11T13:51:00;100733.78;;;3.43;59.00
22653;BME280;11493;43.344;26.226;2023-02-11T13:53:28;100733.63;;;3.38;58.62
22653;BME280;11493;43.344;26.226;2023-02-11T13:56:11;100731.03;;;3.31;59.21
22653;BME280;11493;43.344;26.226;2023-02-11T13:58:58;100709.31;;;3.13;59.39
22653;BME280;11493;43.344;26.226;2023-02-11T14:04:33;100714.25;;;3.46;59.45
22653;BME280;11493;43.344;26.226;2023-02-11T14:07:30;100704.53;;;3.38;60.55
22653;BME280;11493;43.344;26.226;2023-02-11T14:16:10;100698.84;;;3.28;60.26
22653;BME280;11493;43.344;26.226;2023-02-11T14:21:19;100694.78;;;3.19;59.66
22653;BME280;11493;43.344;26.226;2023-02-11T14:23:50;100687.66;;;3.06;61.06
22653;BME280;11493;43.344;26.226;2023-02-11T14:26:33;100689.19;;;3.02;61.26
22653;BME280;11493;43.344;26.226;2023-02-11T14:32:00;100682.72;;;3.15;61.16
22653;BME280;11493;43.344;26.226;2023-02-11T14:42:22;100672.69;;;2.74;61.67
22653;BME280;11493;43.344;26.226;2023-02-11T14:44:54;100669.03;;;2.80;61.95
22653;BME280;11493;43.344;26.226;2023-02-11T14:47:28;100671.94;;;2.67;61.66
22653;BME280;11493;43.344;26.226;2023-02-11T14:49:57;100666.38;;;2.61;61.99
22653;BME280;11493;43.344;26.226;2023-02-11T14:52:32;100674.75;;;2.60;62.62
22653;BME280;11493;43.344;26.226;2023-02-11T14:58:04;100652.13;;;2.48;62.87
22653;BME280;11493;43.344;26.226;2023-02-11T15:00:31;100655.06;;;2.46;63.02
22653;BME280;11493;43.344;26.226;2023-02-11T15:02:58;100628.78;;;2.28;62.97
22653;BME280;11493;43.344;26.226;2023-02-11T15:05:26;100650.66;;;2.34;63.02
22653;BME280;11493;43.344;26.226;2023-02-11T15:07:59;100647.19;;;2.26;61.34
22653;BME280;11493;43.344;26.226;2023-02-11T15:10:34;100640.69;;;2.27;60.81
22653;BME280;11493;43.344;26.226;2023-02-11T15:13:03;100643.22;;;2.11;61.04
22653;BME280;11493;43.344;26.226;2023-02-11T15:15:31;100650.16;;;2.07;61.38
22653;BME280;11493;43.344;26.226;2023-02-11T15:18:00;100658.00;;;1.96;61.40
22653;BME280;11493;43.344;26.226;2023-02-11T15:20:31;100638.03;;;1.91;61.96
22653;BME280;11493;43.344;26.226;2023-02-11T15:23:05;100650.84;;;1.84;62.68